sensor_id;sensor_type;location;lat;lon;timestamp;P1;durP1;ratioP1;P2;durP2;ratioP2
39502;SDS011;26970;49.900;10.774;2023-04-15T00:00:26;9.45;;;6.07;;
39502;SDS011;26970;49.900;10.774;2023-04-15T00:02:52;10.18;;;6.18;;
39502;SDS011;26970;49.900;10.774;2023-04-15T00:05:19;8.73;;;5.68;;
39502;SDS011;26970;49.900;10.774;2023-04-15T00:07:44;11.65;;;6.30;;
39502;SDS011;26970;49.900;10.774;2023-04-15T00:10:11;8.93;;;5.60;;
39502;SDS011;26970;49.900;10.774;2023-04-15T00:12:38;9.23;;;5.57;;
39502;SDS011;26970;49.900;10.774;2023-04-15T00:15:04;8.75;;;5.60;;
39502;SDS011;26970;49.900;10.774;2023-04-15T00:17:30;7.43;;;5.20;;
39502;SDS011;26970;49.900;10.774;2023-04-15T00:19:56;8.65;;;5.75;;
39502;SDS011;26970;49.900;10.774;2023-04-15T00:22:23;8.25;;;5.55;;
39502;SDS011;26970;49.900;10.774;2023-04-15T00:24:50;8.63;;;5.60;;
39502;SDS011;26970;49.900;10.774;2023-04-15T00:27:16;8.55;;;5.85;;
39502;SDS011;26970;49.900;10.774;2023-04-15T00:29:42;8.02;;;5.28;;
39502;SDS011;26970;49.900;10.774;2023-04-15T00:32:08;8.02;;;5.82;;
39502;SDS011;26970;49.900;10.774;2023-04-15T00:34:33;8.07;;;5.13;;
39502;SDS011;26970;49.900;10.774;2023-04-15T00:36:59;10.43;;;5.90;;
39502;SDS011;26970;49.900;10.774;2023-04-15T00:39:24;9.95;;;5.32;;
39502;SDS011;26970;49.900;10.774;2023-04-15T00:41:50;8.20;;;6.10;;
39502;SDS011;26970;49.900;10.774;2023-04-15T00:44:16;7.88;;;5.45;;
39502;SDS011;26970;49.900;10.774;2023-04-15T00:46:42;9.77;;;5.55;;
39502;SDS011;26970;49.900;10.774;2023-04-15T00:49:09;7.45;;;4.85;;
39502;SDS011;26970;49.900;10.774;2023-04-15T00:51:35;10.55;;;6.10;;
39502;SDS011;26970;49.900;10.774;2023-04-15T00:54:04;7.88;;;5.40;;
39502;SDS011;26970;49.900;10.774;2023-04-15T00:56:35;8.15;;;5.53;;
39502;SDS011;26970;49.900;10.774;2023-04-15T00:59:02;8.30;;;5.68;;
39502;SDS011;26970;49.900;10.774;2023-04-15T01:01:28;7.70;;;5.47;;
39502;SDS011;26970;49.900;10.774;2023-04-15T01:03:55;9.68;;;5.05;;
39502;SDS011;26970;49.900;10.774;2023-04-15T01:06:24;10.93;;;5.57;;
39502;SDS011;26970;49.900;10.774;2023-04-15T01:08:51;8.85;;;5.57;;
39502;SDS011;26970;49.900;10.774;2023-04-15T01:11:18;9.85;;;5.82;;
39502;SDS011;26970;49.900;10.774;2023-04-15T01:13:45;8.65;;;5.20;;
39502;SDS011;26970;49.900;10.774;2023-04-15T01:16:10;7.20;;;5.30;;
39502;SDS011;26970;49.900;10.774;2023-04-15T01:18:37;8.75;;;5.38;;
39502;SDS011;26970;49.900;10.774;2023-04-15T01:21:03;7.78;;;5.80;;
39502;SDS011;26970;49.900;10.774;2023-04-15T01:23:30;7.53;;;5.20;;
39502;SDS011;26970;49.900;10.774;2023-04-15T01:25:56;8.23;;;5.28;;
39502;SDS011;26970;49.900;10.774;2023-04-15T01:28:23;12.05;;;5.93;;
39502;SDS011;26970;49.900;10.774;2023-04-15T01:30:49;8.00;;;5.43;;
39502;SDS011;26970;49.900;10.774;2023-04-15T01:33:15;9.52;;;5.60;;
39502;SDS011;26970;49.900;10.774;2023-04-15T01:35:40;8.90;;;5.38;;
39502;SDS011;26970;49.900;10.774;2023-04-15T01:38:08;8.32;;;5.63;;
39502;SDS011;26970;49.900;10.774;2023-04-15T01:40:35;11.00;;;6.65;;
39502;SDS011;26970;49.900;10.774;2023-04-15T01:43:01;7.40;;;5.60;;
39502;SDS011;26970;49.900;10.774;2023-04-15T01:45:27;7.65;;;5.63;;
39502;SDS011;26970;49.900;10.774;2023-04-15T01:47:53;8.23;;;5.32;;
39502;SDS011;26970;49.900;10.774;2023-04-15T01:50:19;8.43;;;5.30;;
39502;SDS011;26970;49.900;10.774;2023-04-15T01:52:45;9.27;;;5.85;;
39502;SDS011;26970;49.900;10.774;2023-04-15T01:55:11;12.98;;;6.20;;
39502;SDS011;26970;49.900;10.774;2023-04-15T01:57:37;8.18;;;5.68;;
39502;SDS011;26970;49.900;10.774;2023-04-15T02:00:03;10.13;;;5.60;;
39502;SDS011;26970;49.900;10.774;2023-04-15T02:02:29;8.95;;;6.43;;
39502;SDS011;26970;49.900;10.774;2023-04-15T02:04:54;10.30;;;6.38;;
39502;SDS011;26970;49.900;10.774;2023-04-15T02:07:20;8.25;;;6.03;;
39502;SDS011;26970;49.900;10.774;2023-04-15T02:09:46;9.32;;;6.05;;
39502;SDS011;26970;49.900;10.774;2023-04-15T02:12:11;8.73;;;6.38;;
39502;SDS011;26970;49.900;10.774;2023-04-15T02:14:37;8.82;;;6.28;;
39502;SDS011;26970;49.900;10.774;2023-04-15T02:17:03;7.82;;;6.20;;
39502;SDS011;26970;49.900;10.774;2023-04-15T02:19:32;9.88;;;6.18;;
39502;SDS011;26970;49.900;10.774;2023-04-15T02:21:59;9.68;;;5.47;;
39502;SDS011;26970;49.900;10.774;2023-04-15T02:24:25;9.10;;;6.28;;
39502;SDS011;26970;49.900;10.774;2023-04-15T02:26:52;9.40;;;5.95;;
39502;SDS011;26970;49.900;10.774;2023-04-15T02:29:17;8.77;;;6.13;;
39502;SDS011;26970;49.900;10.774;2023-04-15T02:31:43;8.95;;;5.85;;
39502;SDS011;26970;49.900;10.774;2023-04-15T02:34:09;12.48;;;6.57;;
39502;SDS011;26970;49.900;10.774;2023-04-15T02:36:35;11.35;;;5.50;;
39502;SDS011;26970;49.900;10.774;2023-04-15T02:39:01;10.13;;;6.03;;
39502;SDS011;26970;49.900;10.774;2023-04-15T02:41:27;7.93;;;5.53;;
39502;SDS011;26970;49.900;10.774;2023-04-15T02:43:54;8.93;;;5.78;;
39502;SDS011;26970;49.900;10.774;2023-04-15T02:46:19;9.00;;;6.13;;
39502;SDS011;26970;49.900;10.774;2023-04-15T02:48:46;10.73;;;5.90;;
39502;SDS011;26970;49.900;10.774;2023-04-15T02:51:13;10.27;;;6.57;;
39502;SDS011;26970;49.900;10.774;2023-04-15T02:53:40;11.52;;;6.18;;
39502;SDS011;26970;49.900;10.774;2023-04-15T02:56:05;9.98;;;7.00;;
39502;SDS011;26970;49.900;10.774;2023-04-15T02:58:32;8.65;;;5.90;;
39502;SDS011;26970;49.900;10.774;2023-04-15T03:00:58;10.05;;;5.93;;
39502;SDS011;26970;49.900;10.774;2023-04-15T03:03:24;9.68;;;5.97;;
39502;SDS011;26970;49.900;10.774;2023-04-15T03:05:51;11.43;;;6.43;;
39502;SDS011;26970;49.900;10.774;2023-04-15T03:08:17;9.25;;;5.45;;
39502;SDS011;26970;49.900;10.774;2023-04-15T03:10:43;9.73;;;5.93;;
39502;SDS011;26970;49.900;10.774;2023-04-15T03:13:08;7.75;;;5.57;;
39502;SDS011;26970;49.900;10.774;2023-04-15T03:15:34;10.75;;;5.53;;
39502;SDS011;26970;49.900;10.774;2023-04-15T03:18:00;8.63;;;6.28;;
39502;SDS011;26970;49.900;10.774;2023-04-15T03:20:25;7.10;;;5.28;;
39502;SDS011;26970;49.900;10.774;2023-04-15T03:22:51;7.32;;;5.53;;
39502;SDS011;26970;49.900;10.774;2023-04-15T03:25:17;8.05;;;5.65;;
39502;SDS011;26970;49.900;10.774;2023-04-15T03:27:42;8.77;;;5.30;;
39502;SDS011;26970;49.900;10.774;2023-04-15T03:30:08;7.65;;;5.32;;
39502;SDS011;26970;49.900;10.774;2023-04-15T03:32:34;7.78;;;5.75;;
39502;SDS011;26970;49.900;10.774;2023-04-15T03:34:59;6.78;;;5.35;;
39502;SDS011;26970;49.900;10.774;2023-04-15T03:37:25;8.95;;;5.95;;
39502;SDS011;26970;49.900;10.774;2023-04-15T03:39:51;11.85;;;5.43;;
39502;SDS011;26970;49.900;10.774;2023-04-15T03:42:17;10.98;;;5.72;;
39502;SDS011;26970;49.900;10.774;2023-04-15T03:44:42;9.23;;;5.55;;
39502;SDS011;26970;49.900;10.774;2023-04-15T03:47:08;10.13;;;5.20;;
39502;SDS011;26970;49.900;10.774;2023-04-15T03:49:33;7.80;;;5.07;;
39502;SDS011;26970;49.900;10.774;2023-04-15T03:52:00;6.55;;;5.18;;
39502;SDS011;26970;49.900;10.774;2023-04-15T03:54:25;8.90;;;5.05;;
39502;SDS011;26970;49.900;10.774;2023-04-15T03:56:51;17.13;;;5.25;;
39502;SDS011;26970;49.900;10.774;2023-04-15T03:59:16;7.05;;;5.43;;
39502;SDS011;26970;49.900;10.774;2023-04-15T04:01:42;6.30;;;5.00;;
39502;SDS011;26970;49.900;10.774;2023-04-15T04:04:07;6.28;;;4.78;;
39502;SDS011;26970;49.900;10.774;2023-04-15T04:06:33;8.10;;;5.38;;
39502;SDS011;26970;49.900;10.774;2023-04-15T04:08:58;7.28;;;5.07;;
39502;SDS011;26970;49.900;10.774;2023-04-15T04:11:25;7.60;;;5.20;;
39502;SDS011;26970;49.900;10.774;2023-04-15T04:13:52;7.85;;;5.18;;
39502;SDS011;26970;49.900;10.774;2023-04-15T04:16:18;9.25;;;5.25;;
39502;SDS011;26970;49.900;10.774;2023-04-15T04:18:43;9.75;;;6.20;;
39502;SDS011;26970;49.900;10.774;2023-04-15T04:21:09;8.02;;;4.97;;
39502;SDS011;26970;49.900;10.774;2023-04-15T04:23:35;6.50;;;4.97;;
39502;SDS011;26970;49.900;10.774;2023-04-15T04:26:01;7.20;;;4.93;;
39502;SDS011;26970;49.900;10.774;2023-04-15T04:28:26;7.75;;;5.13;;
39502;SDS011;26970;49.900;10.774;2023-04-15T04:30:52;9.13;;;4.97;;
39502;SDS011;26970;49.900;10.774;2023-04-15T04:33:18;8.05;;;4.72;;
39502;SDS011;26970;49.900;10.774;2023-04-15T04:35:43;7.25;;;5.10;;
39502;SDS011;26970;49.900;10.774;2023-04-15T04:38:09;7.32;;;5.25;;
39502;SDS011;26970;49.900;10.774;2023-04-15T04:40:35;7.97;;;5.28;;
39502;SDS011;26970;49.900;10.774;2023-04-15T04:43:00;7.63;;;5.28;;
39502;SDS011;26970;49.900;10.774;2023-04-15T04:45:26;10.68;;;5.30;;
39502;SDS011;26970;49.900;10.774;2023-04-15T04:47:52;7.32;;;5.15;;
39502;SDS011;26970;49.900;10.774;2023-04-15T04:50:17;7.28;;;5.53;;
39502;SDS011;26970;49.900;10.774;2023-04-15T04:52:43;7.88;;;4.90;;
39502;SDS011;26970;49.900;10.774;2023-04-15T04:55:09;6.25;;;4.53;;
39502;SDS011;26970;49.900;10.774;2023-04-15T04:57:34;7.45;;;4.75;;
39502;SDS011;26970;49.900;10.774;2023-04-15T05:00:00;7.72;;;4.43;;
39502;SDS011;26970;49.900;10.774;2023-04-15T05:02:28;7.85;;;4.97;;
39502;SDS011;26970;49.900;10.774;2023-04-15T05:04:54;8.25;;;5.63;;
39502;SDS011;26970;49.900;10.774;2023-04-15T05:07:20;6.88;;;5.10;;
39502;SDS011;26970;49.900;10.774;2023-04-15T05:09:46;7.10;;;4.82;;
39502;SDS011;26970;49.900;10.774;2023-04-15T05:12:11;7.57;;;4.55;;
39502;SDS011;26970;49.900;10.774;2023-04-15T05:14:39;6.05;;;4.40;;
39502;SDS011;26970;49.900;10.774;2023-04-15T05:17:05;7.18;;;4.60;;
39502;SDS011;26970;49.900;10.774;2023-04-15T05:19:31;7.63;;;4.28;;
39502;SDS011;26970;49.900;10.774;2023-04-15T05:21:57;6.40;;;4.53;;
39502;SDS011;26970;49.900;10.774;2023-04-15T05:24:22;7.40;;;4.50;;
39502;SDS011;26970;49.900;10.774;2023-04-15T05:26:48;7.43;;;4.80;;
39502;SDS011;26970;49.900;10.774;2023-04-15T05:29:13;7.53;;;4.22;;
39502;SDS011;26970;49.900;10.774;2023-04-15T05:31:39;7.32;;;4.50;;
39502;SDS011;26970;49.900;10.774;2023-04-15T05:34:05;8.57;;;4.78;;
39502;SDS011;26970;49.900;10.774;2023-04-15T05:36:31;6.55;;;4.30;;
39502;SDS011;26970;49.900;10.774;2023-04-15T05:38:57;9.68;;;5.10;;
39502;SDS011;26970;49.900;10.774;2023-04-15T05:41:22;7.00;;;4.13;;
39502;SDS011;26970;49.900;10.774;2023-04-15T05:43:48;7.60;;;4.68;;
39502;SDS011;26970;49.900;10.774;2023-04-15T05:46:13;6.00;;;4.55;;
39502;SDS011;26970;49.900;10.774;2023-04-15T05:48:39;6.97;;;4.88;;
39502;SDS011;26970;49.900;10.774;2023-04-15T05:51:05;6.03;;;4.30;;
39502;SDS011;26970;49.900;10.774;2023-04-15T05:53:31;7.32;;;4.20;;
39502;SDS011;26970;49.900;10.774;2023-04-15T05:55:56;7.78;;;4.80;;
39502;SDS011;26970;49.900;10.774;2023-04-15T05:58:22;6.65;;;4.30;;
39502;SDS011;26970;49.900;10.774;2023-04-15T06:00:47;9.07;;;4.63;;
39502;SDS011;26970;49.900;10.774;2023-04-15T06:03:13;6.45;;;4.50;;
39502;SDS011;26970;49.900;10.774;2023-04-15T06:05:39;7.50;;;4.80;;
39502;SDS011;26970;49.900;10.774;2023-04-15T06:08:05;8.55;;;4.68;;
39502;SDS011;26970;49.900;10.774;2023-04-15T06:10:30;10.18;;;5.07;;
39502;SDS011;26970;49.900;10.774;2023-04-15T06:13:00;18.70;;;5.75;;
39502;SDS011;26970;49.900;10.774;2023-04-15T06:15:27;13.73;;;5.43;;
39502;SDS011;26970;49.900;10.774;2023-04-15T06:17:53;10.02;;;5.38;;
39502;SDS011;26970;49.900;10.774;2023-04-15T06:20:18;7.22;;;4.78;;
39502;SDS011;26970;49.900;10.774;2023-04-15T06:22:44;8.15;;;5.20;;
39502;SDS011;26970;49.900;10.774;2023-04-15T06:25:10;10.13;;;5.50;;
39502;SDS011;26970;49.900;10.774;2023-04-15T06:27:35;8.45;;;5.35;;
39502;SDS011;26970;49.900;10.774;2023-04-15T06:30:01;7.88;;;5.32;;
39502;SDS011;26970;49.900;10.774;2023-04-15T06:32:27;7.57;;;5.28;;
39502;SDS011;26970;49.900;10.774;2023-04-15T06:34:53;8.68;;;5.57;;
39502;SDS011;26970;49.900;10.774;2023-04-15T06:37:18;8.82;;;5.55;;
39502;SDS011;26970;49.900;10.774;2023-04-15T06:39:44;9.88;;;6.32;;
39502;SDS011;26970;49.900;10.774;2023-04-15T06:42:10;8.32;;;5.93;;
39502;SDS011;26970;49.900;10.774;2023-04-15T06:44:36;9.23;;;6.00;;
39502;SDS011;26970;49.900;10.774;2023-04-15T06:47:02;9.85;;;6.10;;
39502;SDS011;26970;49.900;10.774;2023-04-15T06:49:27;9.85;;;6.22;;
39502;SDS011;26970;49.900;10.774;2023-04-15T06:51:53;10.68;;;5.65;;
39502;SDS011;26970;49.900;10.774;2023-04-15T06:54:19;9.10;;;5.53;;
39502;SDS011;26970;49.900;10.774;2023-04-15T06:56:45;10.70;;;6.05;;
39502;SDS011;26970;49.900;10.774;2023-04-15T06:59:11;9.82;;;6.32;;
39502;SDS011;26970;49.900;10.774;2023-04-15T07:01:38;10.82;;;6.35;;
39502;SDS011;26970;49.900;10.774;2023-04-15T07:04:05;9.02;;;6.78;;
39502;SDS011;26970;49.900;10.774;2023-04-15T07:06:30;11.27;;;7.75;;
39502;SDS011;26970;49.900;10.774;2023-04-15T07:08:56;11.10;;;7.63;;
39502;SDS011;26970;49.900;10.774;2023-04-15T07:11:22;11.43;;;7.60;;
39502;SDS011;26970;49.900;10.774;2023-04-15T07:13:49;11.75;;;8.57;;
39502;SDS011;26970;49.900;10.774;2023-04-15T07:16:15;10.70;;;7.97;;
39502;SDS011;26970;49.900;10.774;2023-04-15T07:18:41;11.68;;;8.30;;
39502;SDS011;26970;49.900;10.774;2023-04-15T07:21:07;12.63;;;8.63;;
39502;SDS011;26970;49.900;10.774;2023-04-15T07:23:33;11.90;;;7.50;;
39502;SDS011;26970;49.900;10.774;2023-04-15T07:25:58;12.32;;;8.35;;
39502;SDS011;26970;49.900;10.774;2023-04-15T07:28:25;12.27;;;8.07;;
39502;SDS011;26970;49.900;10.774;2023-04-15T07:30:51;10.35;;;8.13;;
39502;SDS011;26970;49.900;10.774;2023-04-15T07:33:16;11.77;;;7.50;;
39502;SDS011;26970;49.900;10.774;2023-04-15T07:35:42;13.43;;;8.75;;
39502;SDS011;26970;49.900;10.774;2023-04-15T07:38:07;12.25;;;8.30;;
39502;SDS011;26970;49.900;10.774;2023-04-15T07:40:33;12.15;;;8.48;;
39502;SDS011;26970;49.900;10.774;2023-04-15T07:42:59;10.98;;;7.40;;
39502;SDS011;26970;49.900;10.774;2023-04-15T07:45:24;12.55;;;8.68;;
39502;SDS011;26970;49.900;10.774;2023-04-15T07:47:50;15.80;;;8.23;;
39502;SDS011;26970;49.900;10.774;2023-04-15T07:50:15;14.52;;;9.45;;
39502;SDS011;26970;49.900;10.774;2023-04-15T07:52:42;13.85;;;8.73;;
39502;SDS011;26970;49.900;10.774;2023-04-15T07:55:08;16.05;;;9.65;;
39502;SDS011;26970;49.900;10.774;2023-04-15T07:57:34;15.40;;;9.95;;
39502;SDS011;26970;49.900;10.774;2023-04-15T08:00:00;13.23;;;8.98;;
39502;SDS011;26970;49.900;10.774;2023-04-15T08:02:29;15.63;;;9.80;;
39502;SDS011;26970;49.900;10.774;2023-04-15T08:04:55;14.35;;;9.45;;
39502;SDS011;26970;49.900;10.774;2023-04-15T08:07:21;15.25;;;10.23;;
39502;SDS011;26970;49.900;10.774;2023-04-15T08:09:47;15.35;;;10.18;;
39502;SDS011;26970;49.900;10.774;2023-04-15T08:12:13;19.40;;;11.88;;
39502;SDS011;26970;49.900;10.774;2023-04-15T08:14:38;15.63;;;10.60;;
39502;SDS011;26970;49.900;10.774;2023-04-15T08:17:04;16.90;;;11.27;;
39502;SDS011;26970;49.900;10.774;2023-04-15T08:19:30;16.98;;;10.13;;
39502;SDS011;26970;49.900;10.774;2023-04-15T08:21:56;15.77;;;9.65;;
39502;SDS011;26970;49.900;10.774;2023-04-15T08:24:21;18.02;;;10.05;;
39502;SDS011;26970;49.900;10.774;2023-04-15T08:26:50;13.70;;;9.98;;
39502;SDS011;26970;49.900;10.774;2023-04-15T08:29:16;13.45;;;9.20;;
39502;SDS011;26970;49.900;10.774;2023-04-15T08:31:41;16.00;;;9.05;;
39502;SDS011;26970;49.900;10.774;2023-04-15T08:34:07;14.95;;;8.90;;
39502;SDS011;26970;49.900;10.774;2023-04-15T08:36:33;14.50;;;9.18;;
39502;SDS011;26970;49.900;10.774;2023-04-15T08:38:59;14.23;;;9.23;;
39502;SDS011;26970;49.900;10.774;2023-04-15T08:41:26;14.07;;;9.02;;
39502;SDS011;26970;49.900;10.774;2023-04-15T08:44:04;12.18;;;8.98;;
39502;SDS011;26970;49.900;10.774;2023-04-15T08:46:31;11.65;;;8.02;;
39502;SDS011;26970;49.900;10.774;2023-04-15T08:49:00;15.90;;;9.27;;
39502;SDS011;26970;49.900;10.774;2023-04-15T08:51:28;15.57;;;9.00;;
39502;SDS011;26970;49.900;10.774;2023-04-15T08:53:54;11.82;;;8.32;;
39502;SDS011;26970;49.900;10.774;2023-04-15T08:56:21;12.18;;;7.85;;
39502;SDS011;26970;49.900;10.774;2023-04-15T08:58:49;10.65;;;7.35;;
39502;SDS011;26970;49.900;10.774;2023-04-15T09:01:16;13.77;;;8.50;;
39502;SDS011;26970;49.900;10.774;2023-04-15T09:03:42;11.80;;;8.23;;
39502;SDS011;26970;49.900;10.774;2023-04-15T09:06:08;11.55;;;7.60;;
39502;SDS011;26970;49.900;10.774;2023-04-15T09:08:34;11.48;;;7.47;;
39502;SDS011;26970;49.900;10.774;2023-04-15T09:11:00;11.60;;;7.85;;
39502;SDS011;26970;49.900;10.774;2023-04-15T09:13:27;11.63;;;7.30;;
39502;SDS011;26970;49.900;10.774;2023-04-15T09:15:53;12.27;;;7.70;;
39502;SDS011;26970;49.900;10.774;2023-04-15T09:18:32;10.90;;;7.00;;
39502;SDS011;26970;49.900;10.774;2023-04-15T09:21:06;10.25;;;7.15;;
39502;SDS011;26970;49.900;10.774;2023-04-15T09:23:36;9.32;;;6.32;;
39502;SDS011;26970;49.900;10.774;2023-04-15T09:26:03;11.63;;;6.20;;
39502;SDS011;26970;49.900;10.774;2023-04-15T09:28:30;11.10;;;6.85;;
39502;SDS011;26970;49.900;10.774;2023-04-15T09:30:59;9.20;;;6.65;;
39502;SDS011;26970;49.900;10.774;2023-04-15T09:33:26;11.10;;;6.85;;
39502;SDS011;26970;49.900;10.774;2023-04-15T09:35:59;8.25;;;6.40;;
39502;SDS011;26970;49.900;10.774;2023-04-15T09:38:25;10.95;;;7.07;;
39502;SDS011;26970;49.900;10.774;2023-04-15T09:40:51;7.70;;;5.88;;
39502;SDS011;26970;49.900;10.774;2023-04-15T09:43:16;9.60;;;6.10;;
39502;SDS011;26970;49.900;10.774;2023-04-15T09:45:49;8.02;;;5.60;;
39502;SDS011;26970;49.900;10.774;2023-04-15T09:48:19;11.15;;;6.30;;
39502;SDS011;26970;49.900;10.774;2023-04-15T09:50:47;11.38;;;6.70;;
39502;SDS011;26970;49.900;10.774;2023-04-15T09:53:17;8.90;;;5.90;;
39502;SDS011;26970;49.900;10.774;2023-04-15T09:55:45;8.63;;;5.13;;
39502;SDS011;26970;49.900;10.774;2023-04-15T09:58:20;10.40;;;5.75;;
39502;SDS011;26970;49.900;10.774;2023-04-15T10:00:51;7.97;;;5.32;;
39502;SDS011;26970;49.900;10.774;2023-04-15T10:03:25;7.25;;;5.65;;
39502;SDS011;26970;49.900;10.774;2023-04-15T10:05:52;7.55;;;5.50;;
39502;SDS011;26970;49.900;10.774;2023-04-15T10:08:20;7.10;;;5.20;;
39502;SDS011;26970;49.900;10.774;2023-04-15T10:10:49;8.00;;;5.47;;
39502;SDS011;26970;49.900;10.774;2023-04-15T10:13:20;8.30;;;5.13;;
39502;SDS011;26970;49.900;10.774;2023-04-15T10:15:55;8.43;;;4.80;;
39502;SDS011;26970;49.900;10.774;2023-04-15T10:18:24;7.15;;;5.40;;
39502;SDS011;26970;49.900;10.774;2023-04-15T10:20:51;7.57;;;5.63;;
39502;SDS011;26970;49.900;10.774;2023-04-15T10:23:17;7.40;;;5.13;;
39502;SDS011;26970;49.900;10.774;2023-04-15T10:25:45;7.22;;;5.22;;
39502;SDS011;26970;49.900;10.774;2023-04-15T10:28:13;7.10;;;4.97;;
39502;SDS011;26970;49.900;10.774;2023-04-15T10:30:40;7.40;;;4.72;;
39502;SDS011;26970;49.900;10.774;2023-04-15T10:33:07;6.57;;;4.95;;
39502;SDS011;26970;49.900;10.774;2023-04-15T10:35:35;6.40;;;4.60;;
39502;SDS011;26970;49.900;10.774;2023-04-15T10:38:01;9.57;;;5.53;;
39502;SDS011;26970;49.900;10.774;2023-04-15T10:40:47;11.65;;;6.68;;
39502;SDS011;26970;49.900;10.774;2023-04-15T10:43:23;6.50;;;4.40;;
39502;SDS011;26970;49.900;10.774;2023-04-15T10:45:51;7.22;;;4.65;;
39502;SDS011;26970;49.900;10.774;2023-04-15T10:48:17;7.30;;;5.25;;
39502;SDS011;26970;49.900;10.774;2023-04-15T10:50:54;7.80;;;5.30;;
39502;SDS011;26970;49.900;10.774;2023-04-15T10:53:27;5.95;;;4.15;;
39502;SDS011;26970;49.900;10.774;2023-04-15T10:55:54;10.15;;;5.10;;
39502;SDS011;26970;49.900;10.774;2023-04-15T10:58:22;7.38;;;4.90;;
39502;SDS011;26970;49.900;10.774;2023-04-15T11:00:49;10.60;;;6.93;;
39502;SDS011;26970;49.900;10.774;2023-04-15T11:03:37;11.45;;;5.68;;
39502;SDS011;26970;49.900;10.774;2023-04-15T11:06:05;6.72;;;4.72;;
39502;SDS011;26970;49.900;10.774;2023-04-15T11:11:18;5.75;;;4.13;;
39502;SDS011;26970;49.900;10.774;2023-04-15T11:13:48;6.72;;;4.90;;
39502;SDS011;26970;49.900;10.774;2023-04-15T11:16:15;6.03;;;4.50;;
39502;SDS011;26970;49.900;10.774;2023-04-15T11:18:41;5.65;;;3.92;;
39502;SDS011;26970;49.900;10.774;2023-04-15T11:21:17;4.38;;;3.45;;
39502;SDS011;26970;49.900;10.774;2023-04-15T11:23:42;6.28;;;4.10;;
39502;SDS011;26970;49.900;10.774;2023-04-15T11:26:10;9.25;;;6.03;;
39502;SDS011;26970;49.900;10.774;2023-04-15T11:28:37;8.32;;;5.68;;
39502;SDS011;26970;49.900;10.774;2023-04-15T11:31:05;8.60;;;6.00;;
39502;SDS011;26970;49.900;10.774;2023-04-15T11:33:35;6.68;;;4.35;;
39502;SDS011;26970;49.900;10.774;2023-04-15T11:36:01;5.93;;;3.90;;
39502;SDS011;26970;49.900;10.774;2023-04-15T11:38:28;6.60;;;4.63;;
39502;SDS011;26970;49.900;10.774;2023-04-15T11:40:54;5.38;;;3.90;;
39502;SDS011;26970;49.900;10.774;2023-04-15T11:43:20;6.45;;;4.20;;
39502;SDS011;26970;49.900;10.774;2023-04-15T11:46:04;6.85;;;4.05;;
39502;SDS011;26970;49.900;10.774;2023-04-15T11:48:31;5.63;;;4.03;;
39502;SDS011;26970;49.900;10.774;2023-04-15T11:50:59;6.72;;;4.00;;
39502;SDS011;26970;49.900;10.774;2023-04-15T11:56:16;4.35;;;3.25;;
39502;SDS011;26970;49.900;10.774;2023-04-15T11:58:43;4.85;;;3.55;;
39502;SDS011;26970;49.900;10.774;2023-04-15T12:01:10;4.50;;;3.35;;
39502;SDS011;26970;49.900;10.774;2023-04-15T12:11:32;4.85;;;3.30;;
39502;SDS011;26970;49.900;10.774;2023-04-15T12:14:01;4.70;;;3.33;;
39502;SDS011;26970;49.900;10.774;2023-04-15T12:16:38;7.20;;;3.88;;
39502;SDS011;26970;49.900;10.774;2023-04-15T12:19:18;5.30;;;3.72;;
39502;SDS011;26970;49.900;10.774;2023-04-15T12:21:50;4.75;;;3.42;;
39502;SDS011;26970;49.900;10.774;2023-04-15T12:24:19;7.10;;;5.05;;
39502;SDS011;26970;49.900;10.774;2023-04-15T12:26:50;5.00;;;3.50;;
39502;SDS011;26970;49.900;10.774;2023-04-15T12:29:25;4.93;;;3.55;;
39502;SDS011;26970;49.900;10.774;2023-04-15T12:31:53;5.10;;;3.25;;
39502;SDS011;26970;49.900;10.774;2023-04-15T12:36:52;6.57;;;3.85;;
39502;SDS011;26970;49.900;10.774;2023-04-15T12:39:22;8.32;;;4.00;;
39502;SDS011;26970;49.900;10.774;2023-04-15T12:41:49;5.53;;;3.50;;
39502;SDS011;26970;49.900;10.774;2023-04-15T12:44:15;10.48;;;3.67;;
39502;SDS011;26970;49.900;10.774;2023-04-15T12:46:40;4.68;;;3.10;;
39502;SDS011;26970;49.900;10.774;2023-04-15T12:49:06;5.30;;;3.75;;
39502;SDS011;26970;49.900;10.774;2023-04-15T12:51:33;5.93;;;3.33;;
39502;SDS011;26970;49.900;10.774;2023-04-15T12:53:58;4.85;;;2.80;;
39502;SDS011;26970;49.900;10.774;2023-04-15T12:56:24;9.57;;;4.70;;
39502;SDS011;26970;49.900;10.774;2023-04-15T12:58:50;6.80;;;4.03;;
39502;SDS011;26970;49.900;10.774;2023-04-15T13:01:16;7.05;;;3.67;;
39502;SDS011;26970;49.900;10.774;2023-04-15T13:03:42;7.38;;;4.10;;
39502;SDS011;26970;49.900;10.774;2023-04-15T13:06:08;12.02;;;3.78;;
39502;SDS011;26970;49.900;10.774;2023-04-15T13:08:33;4.70;;;2.83;;
39502;SDS011;26970;49.900;10.774;2023-04-15T13:10:59;6.07;;;3.25;;
39502;SDS011;26970;49.900;10.774;2023-04-15T13:13:24;6.32;;;3.58;;
39502;SDS011;26970;49.900;10.774;2023-04-15T13:15:51;6.55;;;3.92;;
39502;SDS011;26970;49.900;10.774;2023-04-15T13:18:16;4.88;;;2.63;;
39502;SDS011;26970;49.900;10.774;2023-04-15T13:20:42;6.03;;;2.95;;
39502;SDS011;26970;49.900;10.774;2023-04-15T13:23:08;8.25;;;4.10;;
39502;SDS011;26970;49.900;10.774;2023-04-15T13:25:33;5.47;;;3.10;;
39502;SDS011;26970;49.900;10.774;2023-04-15T13:27:59;4.13;;;2.88;;
39502;SDS011;26970;49.900;10.774;2023-04-15T13:30:25;3.60;;;2.70;;
39502;SDS011;26970;49.900;10.774;2023-04-15T13:32:51;3.80;;;2.72;;
39502;SDS011;26970;49.900;10.774;2023-04-15T13:35:18;5.85;;;3.58;;
39502;SDS011;26970;49.900;10.774;2023-04-15T13:37:44;7.40;;;3.88;;
39502;SDS011;26970;49.900;10.774;2023-04-15T13:40:10;6.88;;;3.40;;
39502;SDS011;26970;49.900;10.774;2023-04-15T13:42:35;4.35;;;2.55;;
39502;SDS011;26970;49.900;10.774;2023-04-15T13:45:01;3.72;;;2.50;;
39502;SDS011;26970;49.900;10.774;2023-04-15T13:47:27;3.83;;;2.78;;
39502;SDS011;26970;49.900;10.774;2023-04-15T13:49:53;8.00;;;6.32;;
39502;SDS011;26970;49.900;10.774;2023-04-15T13:52:20;4.93;;;3.80;;
39502;SDS011;26970;49.900;10.774;2023-04-15T13:54:47;4.25;;;2.80;;
39502;SDS011;26970;49.900;10.774;2023-04-15T13:57:12;6.40;;;3.10;;
39502;SDS011;26970;49.900;10.774;2023-04-15T13:59:38;4.43;;;3.20;;
39502;SDS011;26970;49.900;10.774;2023-04-15T14:02:04;4.28;;;2.75;;
39502;SDS011;26970;49.900;10.774;2023-04-15T14:04:30;3.83;;;2.95;;
39502;SDS011;26970;49.900;10.774;2023-04-15T14:06:56;5.78;;;3.40;;
39502;SDS011;26970;49.900;10.774;2023-04-15T14:09:22;5.03;;;3.53;;
39502;SDS011;26970;49.900;10.774;2023-04-15T14:11:48;5.97;;;4.13;;
39502;SDS011;26970;49.900;10.774;2023-04-15T14:14:14;4.25;;;2.90;;
39502;SDS011;26970;49.900;10.774;2023-04-15T14:16:40;4.13;;;2.90;;
39502;SDS011;26970;49.900;10.774;2023-04-15T14:19:06;3.80;;;2.58;;
39502;SDS011;26970;49.900;10.774;2023-04-15T14:21:31;3.92;;;2.80;;
39502;SDS011;26970;49.900;10.774;2023-04-15T14:23:57;4.10;;;2.78;;
39502;SDS011;26970;49.900;10.774;2023-04-15T14:26:23;4.20;;;2.80;;
39502;SDS011;26970;49.900;10.774;2023-04-15T14:28:50;4.90;;;3.17;;
39502;SDS011;26970;49.900;10.774;2023-04-15T14:31:16;3.95;;;2.70;;
39502;SDS011;26970;49.900;10.774;2023-04-15T14:33:42;6.30;;;3.58;;
39502;SDS011;26970;49.900;10.774;2023-04-15T14:36:08;5.28;;;3.58;;
39502;SDS011;26970;49.900;10.774;2023-04-15T14:38:34;4.15;;;2.90;;
39502;SDS011;26970;49.900;10.774;2023-04-15T14:41:07;4.20;;;2.70;;
39502;SDS011;26970;49.900;10.774;2023-04-15T14:43:34;4.53;;;3.10;;